createdAt,value
2022-11-22T06:23:34.213Z,18.30
2022-11-22T06:26:36.133Z,16.50
2022-11-22T06:29:27.308Z,15.80
2022-11-22T06:32:09.164Z,13.70
2022-11-22T06:34:57.164Z,19.00
2022-11-22T06:37:32.327Z,15.80
2022-11-22T06:40:20.171Z,14.00
2022-11-22T06:42:55.297Z,14.30
2022-11-22T06:45:43.162Z,12.50
2022-11-22T06:48:17.309Z,11.80
2022-11-22T06:51:25.167Z,12.20
2022-11-22T06:54:00.394Z,9.40
2022-11-22T06:56:48.142Z,9.40
2022-11-22T06:59:29.355Z,12.50
2022-11-22T07:02:25.152Z,11.20
2022-11-22T07:05:28.577Z,12.40
2022-11-22T07:08:10.419Z,10.70
2022-11-22T07:11:01.135Z,8.90
2022-11-22T07:13:42.152Z,9.10
2022-11-22T07:16:37.154Z,9.20
2022-11-22T07:19:25.261Z,8.80
2022-11-22T07:22:00.399Z,7.00
2022-11-22T07:24:48.231Z,8.40
2022-11-22T07:27:23.340Z,10.30
2022-11-22T07:30:11.149Z,8.80
2022-11-22T07:32:46.312Z,10.80
2022-11-22T07:35:34.173Z,11.30
2022-11-22T07:38:16.169Z,10.70
2022-11-22T07:41:11.171Z,12.00
2022-11-22T07:44:00.236Z,8.20
2022-11-22T07:46:36.296Z,7.70
2022-11-22T07:49:24.155Z,5.80
2022-11-22T07:52:06.151Z,8.30
2022-11-22T07:54:54.132Z,5.80
2022-11-22T07:57:29.291Z,7.60
2022-11-22T08:00:19.144Z,7.10
2022-11-22T08:02:54.279Z,9.30
2022-11-22T08:05:42.151Z,11.70
2022-11-22T08:08:17.389Z,19.50
2022-11-22T08:11:06.157Z,20.40
2022-11-22T08:13:54.145Z,18.70
2022-11-22T08:16:28.720Z,17.60
2022-11-22T08:19:16.156Z,16.30
2022-11-22T08:21:58.663Z,14.60
2022-11-22T08:24:40.341Z,13.60
2022-11-22T08:27:21.150Z,14.50
2022-11-22T08:30:02.366Z,14.50
2022-11-22T08:32:43.147Z,14.20
2022-11-22T08:35:32.123Z,12.90
2022-11-22T08:38:17.110Z,13.10
2022-11-22T08:41:07.164Z,12.40
2022-11-22T08:44:07.181Z,14.30
2022-11-22T08:46:55.219Z,14.00
2022-11-22T08:49:36.299Z,14.20
2022-11-22T08:52:17.268Z,14.70
2022-11-22T08:54:58.343Z,15.30
2022-11-22T08:57:40.238Z,14.60
2022-11-22T09:00:33.373Z,14.40
2022-11-22T09:03:09.365Z,15.80
2022-11-22T09:09:22.201Z,14.90
2022-11-22T09:12:06.143Z,14.60
2022-11-22T09:14:40.895Z,15.60
2022-11-22T09:17:29.144Z,14.80
2022-11-22T09:20:04.871Z,14.60
2022-11-22T09:22:53.140Z,13.90
2022-11-22T09:25:41.242Z,14.60
2022-11-22T09:28:16.390Z,15.40
2022-11-22T09:31:13.096Z,14.20
2022-11-22T09:33:56.141Z,14.60
2022-11-22T09:36:51.245Z,15.70
2022-11-22T09:39:41.447Z,16.00
2022-11-22T09:42:32.445Z,15.40
2022-11-22T09:45:48.245Z,17.00
2022-11-22T09:48:42.415Z,16.00
2022-11-22T09:51:31.139Z,16.60
2022-11-22T09:54:19.312Z,16.80
2022-11-22T09:57:04.136Z,17.10
2022-11-22T09:59:54.169Z,16.10
2022-11-22T10:02:58.946Z,16.40
2022-11-22T10:06:01.129Z,15.00
2022-11-22T10:08:57.600Z,16.50
2022-11-22T10:11:59.178Z,15.70
2022-11-22T10:14:39.363Z,15.00
2022-11-22T10:17:42.091Z,16.30
2022-11-22T10:20:26.282Z,16.00
2022-11-22T10:23:33.224Z,14.80
2022-11-22T10:26:24.233Z,14.70
2022-11-22T10:29:23.617Z,15.50
2022-11-22T10:32:40.126Z,14.50
2022-11-22T10:35:43.291Z,15.50
2022-11-22T10:38:42.231Z,14.10
2022-11-22T10:41:23.410Z,14.30
2022-11-22T10:44:42.169Z,20.50
2022-11-22T10:47:47.308Z,21.00
2022-11-22T10:51:07.137Z,19.40
2022-11-22T10:54:23.375Z,18.30
2022-11-22T10:57:20.132Z,16.70
2022-11-22T11:00:16.395Z,16.50
2022-11-22T11:03:40.135Z,15.90
2022-11-22T11:07:10.286Z,14.00
2022-11-22T11:12:53.297Z,12.10
2022-11-22T11:15:47.260Z,12.50
2022-11-22T11:18:38.360Z,12.80
2022-11-22T11:21:33.145Z,12.40
2022-11-22T11:24:29.302Z,12.20
2022-11-22T11:27:18.182Z,12.20
2022-11-22T11:29:56.318Z,13.00
2022-11-22T11:33:01.259Z,12.20
2022-11-22T11:35:44.153Z,12.80
2022-11-22T11:38:50.165Z,12.70
2022-11-22T11:41:43.395Z,12.60
2022-11-22T11:44:44.123Z,12.20
2022-11-22T11:47:48.153Z,13.40
2022-11-22T11:50:39.083Z,13.30
2022-11-22T11:53:23.377Z,13.10
2022-11-22T11:56:51.243Z,13.30
2022-11-22T11:59:27.360Z,12.60
2022-11-22T12:02:20.451Z,13.70
2022-11-22T12:04:55.447Z,14.40
2022-11-22T12:07:43.202Z,13.10
2022-11-22T12:10:38.268Z,12.80
2022-11-22T12:17:00.319Z,69.80
2022-11-22T12:19:52.154Z,56.40
2022-11-22T12:22:50.022Z,45.00
2022-11-22T12:25:48.146Z,36.70
2022-11-22T12:28:36.160Z,31.00
2022-11-22T12:31:29.327Z,28.20
2022-11-22T12:34:25.144Z,22.50
2022-11-22T12:37:23.295Z,22.00
2022-11-22T12:40:24.135Z,20.20
2022-11-22T12:43:01.273Z,19.80
2022-11-22T12:45:52.159Z,18.50
2022-11-22T12:48:49.257Z,17.10
2022-11-22T12:51:40.243Z,15.50
2022-11-22T12:54:28.541Z,14.00
2022-11-22T12:57:37.180Z,13.60
2022-11-22T13:00:29.144Z,12.20
2022-11-22T13:03:18.608Z,12.40
2022-11-22T13:06:01.759Z,11.60
2022-11-22T13:09:14.142Z,10.40
2022-11-22T13:12:21.161Z,10.90
2022-11-22T13:15:05.581Z,10.80
2022-11-22T13:17:47.168Z,10.30
2022-11-22T13:20:31.288Z,10.50
2022-11-22T13:23:38.186Z,10.40
2022-11-22T16:00:01.333Z,35.30
2022-11-22T16:02:37.294Z,9.20
2022-11-22T16:06:05.314Z,10.40
2022-11-22T16:08:32.610Z,6.00
2022-11-22T16:11:35.141Z,7.10
2022-11-22T16:14:55.104Z,9.20
2022-11-22T16:17:44.135Z,8.50
2022-11-22T16:20:38.274Z,7.00
2022-11-22T16:23:32.124Z,7.00
2022-11-22T16:26:27.119Z,6.50
2022-11-22T16:29:38.145Z,6.40
2022-11-22T16:32:25.114Z,6.20
2022-11-22T16:35:29.171Z,6.20
2022-11-22T16:38:18.330Z,8.10
2022-11-22T16:40:57.697Z,6.20
2022-11-22T16:43:49.125Z,6.60
2022-11-22T16:46:30.128Z,10.70
2022-11-22T16:49:30.388Z,8.70
2022-11-22T16:52:19.125Z,9.00
2022-11-22T16:54:54.276Z,8.90
2022-11-22T16:57:43.132Z,12.70
2022-11-22T17:00:19.257Z,10.30
2022-11-22T17:03:08.120Z,10.50
2022-11-22T17:05:46.963Z,10.70
2022-11-22T17:08:35.125Z,13.40
2022-11-22T17:11:10.264Z,10.50
2022-11-22T17:14:00.167Z,10.70
2022-11-22T17:16:35.278Z,8.80
2022-11-22T17:19:52.099Z,10.70
2022-11-22T17:22:25.565Z,7.90
2022-11-22T17:25:07.170Z,9.90
2022-11-22T17:27:55.177Z,9.10
2022-11-22T17:30:36.152Z,9.00
2022-11-22T17:33:18.439Z,14.10
2022-11-22T17:36:00.329Z,12.20
2022-11-22T17:38:42.265Z,10.90
2022-11-22T17:41:23.195Z,10.40
2022-11-22T17:44:05.400Z,11.30
2022-11-22T17:46:47.331Z,11.50
2022-11-22T17:49:29.178Z,11.30
2022-11-22T17:52:11.198Z,11.30
2022-11-22T17:55:13.079Z,11.80
2022-11-22T17:58:02.423Z,11.50
2022-11-22T18:00:38.319Z,16.30
2022-11-22T18:03:27.741Z,18.00
2022-11-22T18:06:03.301Z,15.10
2022-11-22T18:08:51.158Z,13.90
2022-11-22T18:11:33.133Z,14.80
2022-11-22T18:14:15.354Z,12.30
2022-11-22T18:17:03.144Z,12.70
2022-11-22T18:19:44.119Z,10.00
2022-11-22T18:22:25.413Z,9.50
2022-11-22T18:25:11.079Z,12.90
2022-11-22T18:27:53.265Z,9.20
2022-11-22T18:30:35.311Z,10.80
2022-11-22T18:33:24.125Z,9.90
2022-11-22T18:36:02.465Z,10.80
2022-11-22T18:38:58.574Z,10.90
2022-11-22T18:41:34.470Z,9.40
2022-11-22T18:44:22.250Z,10.40
2022-11-22T18:47:03.119Z,8.80
2022-11-22T18:49:45.312Z,8.90
2022-11-22T18:52:34.580Z,9.70
2022-11-22T18:55:18.103Z,8.40
2022-11-22T18:58:13.100Z,9.00
2022-11-22T19:01:01.415Z,9.40
2022-11-22T19:03:42.263Z,9.60
2022-11-22T19:06:25.218Z,12.70
2022-11-22T19:09:08.439Z,10.90
2022-11-22T19:11:53.337Z,12.70
2022-11-22T19:14:37.567Z,9.90
2022-11-22T19:17:22.272Z,12.10
2022-11-22T19:20:04.852Z,14.30
2022-11-22T19:22:46.326Z,10.70
2022-11-22T19:25:35.119Z,10.50
2022-11-22T19:28:16.292Z,9.90
2022-11-22T19:30:57.349Z,10.10
2022-11-22T19:36:30.787Z,13.20
2022-11-22T19:39:18.315Z,13.00
2022-11-22T19:42:01.282Z,12.70
2022-11-22T19:44:45.596Z,13.00
2022-11-22T19:47:27.219Z,12.20
2022-11-22T19:50:08.095Z,11.70
2022-11-22T19:52:49.222Z,11.50
2022-11-22T19:55:31.087Z,8.90
2022-11-22T19:58:20.094Z,12.50
2022-11-22T20:01:01.126Z,12.80
2022-11-22T20:03:46.272Z,12.60
2022-11-22T20:06:28.459Z,14.10
2022-11-22T20:09:18.859Z,14.40
2022-11-22T20:12:01.183Z,14.60
2022-11-22T20:14:42.255Z,12.20
2022-11-22T20:17:23.299Z,12.60
2022-11-22T20:20:07.860Z,9.90
2022-11-22T20:22:50.254Z,14.00
